Time;durP1;ratioP1;P1;durP2;ratioP2;P2;SDS_P1;SDS_P2;PMS_P1;PMS_P2;Temp;Humidity;BMP_temperature;BMP_pressure;BME280_temperature;BME280_humidity;BME280_pressure;Samples;Min_cycle;Max_cycle;Signal;HPM_P1;HPM_P2
2022/01/22 00:00:23;;;;;;;3.33;1.80;;;;;;;7.69;78.19;101154.38;5089353;28;20051;-62
2022/01/22 00:02:49;;;;;;;;;;;;;;;7.71;77.50;101156.09;5090351;28;20051;-61
2022/01/22 00:05:18;;;;;;;2.70;1.83;;;;;;;7.75;78.03;101155.13;5090841;28;20364;-63
2022/01/22 00:07:45;;;;;;;5.18;1.73;;;;;;;7.76;77.87;101160.34;5090983;28;20105;-61
2022/01/22 00:10:14;;;;;;;2.35;1.85;;;;;;;7.75;78.17;101147.28;5090510;28;20048;-61
2022/01/22 00:15:20;;;;;;;2.80;1.75;;;;;;;7.74;77.87;101156.03;5090749;28;20044;-61
2022/01/22 00:17:48;;;;;;;4.20;2.10;;;;;;;7.76;77.98;101162.09;5089742;28;20100;-63
2022/01/22 00:20:17;;;;;;;5.47;1.85;;;;;;;7.76;77.82;101154.22;5090626;28;20055;-63
2022/01/22 00:22:44;;;;;;;2.78;1.65;;;;;;;7.76;78.11;101157.72;5090720;28;20442;-63
2022/01/22 00:25:13;;;;;;;2.67;1.70;;;;;;;7.79;78.04;101143.69;5090689;28;20105;-62
2022/01/22 00:27:43;;;;;;;3.38;1.95;;;;;;;7.78;78.05;101155.91;5090520;28;20121;-63
2022/01/22 00:30:13;;;;;;;3.88;1.80;;;;;;;7.79;77.95;101151.53;5091923;28;20052;-61
2022/01/22 00:32:40;;;;;;;2.28;1.45;;;;;;;7.81;78.01;101147.13;5094660;28;20454;-61
2022/01/22 00:35:07;;;;;;;5.22;1.75;;;;;;;7.81;77.88;101136.63;5094504;28;20048;-61
2022/01/22 00:37:36;;;;;;;4.53;1.90;;;;;;;7.80;77.88;101138.41;5093379;28;20537;-61
2022/01/22 00:40:04;;;;;;;2.67;1.80;;;;;;;7.81;78.14;101142.75;5093022;28;21036;-64
2022/01/22 00:42:33;;;;;;;4.38;1.73;;;;;;;7.81;77.83;101129.63;5093443;28;20419;-63
2022/01/22 00:45:00;;;;;;;2.75;1.77;;;;;;;7.82;78.05;101131.34;5094699;28;20051;-64
2022/01/22 00:47:26;;;;;;;2.85;1.80;;;;;;;7.82;77.95;101133.13;5094411;28;20443;-62
2022/01/22 00:49:53;;;;;;;5.82;2.00;;;;;;;7.82;78.15;101127.88;5094181;28;20048;-62
2022/01/22 00:52:20;;;;;;;5.32;1.92;;;;;;;7.84;78.17;101125.25;5094191;28;20557;-63
2022/01/22 00:54:46;;;;;;;4.90;2.00;;;;;;;7.84;78.29;101125.25;5094296;28;20056;-63
2022/01/22 00:57:13;;;;;;;4.63;1.75;;;;;;;7.84;78.32;101120.84;5094348;28;20097;-62
2022/01/22 00:59:40;;;;;;;2.72;1.50;;;;;;;7.85;78.16;101125.19;5093778;28;20090;-63
2022/01/22 01:02:06;;;;;;;2.33;1.70;;;;;;;7.85;77.90;101132.19;5093986;28;20056;-62
2022/01/22 01:04:35;;;;;;;3.33;1.80;;;;;;;7.85;78.01;101127.78;5094126;28;20052;-61
2022/01/22 01:07:04;;;;;;;3.80;1.85;;;;;;;7.86;77.95;101134.78;5093994;28;20052;-63
2022/01/22 01:09:33;;;;;;;4.03;1.88;;;;;;;7.86;78.30;101129.53;5093580;28;20052;-62
2022/01/22 01:12:04;;;;;;;4.72;1.73;;;;;;;7.87;78.15;101128.63;5092566;28;20063;-63
2022/01/22 01:14:37;;;;;;;2.83;1.95;;;;;;;7.87;78.10;101136.50;5092691;28;20044;-63
2022/01/22 01:33:47;;;;;;;5.47;2.00;;;;;;;7.91;78.04;101145.16;5093712;28;20052;-63
2022/01/22 01:36:15;;;;;;;3.15;1.58;;;;;;;7.91;78.30;101140.78;5093529;28;20048;-62
2022/01/22 01:38:49;;;;;;;4.50;1.60;;;;;;;7.92;78.53;101141.63;5093411;28;20056;-62
2022/01/22 01:41:32;;;;;;;5.78;1.77;;;;;;;7.91;78.26;101137.28;5091531;28;20102;-62
2022/01/22 01:43:58;;;;;;;3.20;1.70;;;;;;;7.93;78.33;101141.59;5093493;28;20059;-64
2022/01/22 01:46:29;;;;;;;3.92;1.25;;;;;;;7.94;78.53;101134.59;5093270;28;20084;-62
2022/01/22 01:48:57;;;;;;;3.50;1.88;;;;;;;7.95;78.16;101141.56;5091953;28;20059;-61
2022/01/22 01:51:26;;;;;;;4.40;1.83;;;;;;;7.95;78.00;101139.81;5092901;28;20047;-62
2022/01/22 01:59:31;;;;;;;3.20;1.52;;;;;;;7.99;78.38;101150.25;5092859;28;20052;-63
2022/01/22 02:01:58;;;;;;;5.40;1.50;;;;;;;7.99;78.25;101145.84;5093299;28;20125;-62
2022/01/22 02:04:24;;;;;;;2.80;1.85;;;;;;;7.99;78.23;101155.47;5092990;28;20087;-62
2022/01/22 02:06:51;;;;;;;2.08;1.65;;;;;;;7.99;78.38;101148.44;5092843;28;20048;-63
2022/01/22 02:09:18;;;;;;;8.05;2.63;;;;;;;8.00;78.28;101152.78;5092461;28;20070;-62
2022/01/22 02:11:45;;;;;;;2.58;1.55;;;;;;;8.01;78.56;101148.41;5091316;28;20105;-62
2022/01/22 02:25:14;;;;;;;4.25;2.28;;;;;;;8.04;78.12;101158.84;5092349;28;20561;-62
2022/01/22 02:27:41;;;;;;;3.00;2.10;;;;;;;8.05;78.47;101152.69;5092486;28;20044;-62
2022/01/22 02:30:08;;;;;;;2.47;1.70;;;;;;;8.06;78.61;101151.78;5092106;28;20048;-62
2022/01/22 02:35:11;;;;;;;3.38;1.85;;;;;;;8.07;78.64;101158.75;5092771;28;20491;-62
2022/01/22 02:37:45;;;;;;;5.25;1.67;;;;;;;8.09;78.38;101164.84;5092098;28;20044;-63
2022/01/22 02:40:20;;;;;;;6.75;1.90;;;;;;;8.12;78.34;101167.41;5090827;28;20097;-63
2022/01/22 02:42:46;;;;;;;2.67;1.58;;;;;;;8.12;78.45;101162.16;5092369;28;20789;-62
2022/01/22 02:45:18;;;;;;;2.97;1.90;;;;;;;8.13;78.39;101153.38;5091897;28;20594;-62
2022/01/22 02:47:45;;;;;;;4.35;1.92;;;;;;;8.14;78.57;101168.22;5092275;28;20048;-62
2022/01/22 02:50:15;;;;;;;4.13;1.92;;;;;;;8.14;78.26;101170.84;5091809;28;20055;-62
2022/01/22 02:52:42;;;;;;;4.82;2.45;;;;;;;8.16;78.25;101170.78;5090425;28;20044;-62
2022/01/22 02:55:11;;;;;;;4.32;2.28;;;;;;;8.16;78.54;101174.28;5089927;28;20048;-62
2022/01/22 02:57:41;;;;;;;2.85;2.30;;;;;;;8.17;78.69;101170.75;5090630;28;20577;-62
2022/01/22 03:00:12;;;;;;;4.57;2.33;;;;;;;8.19;78.66;101173.34;5090446;28;20056;-64
2022/01/22 03:02:38;;;;;;;4.75;2.20;;;;;;;8.20;78.48;101165.47;5090756;28;20060;-63
2022/01/22 03:05:06;;;;;;;5.03;2.25;;;;;;;8.20;78.45;101165.47;5091835;28;20117;-62
2022/01/22 03:07:35;;;;;;;4.82;2.30;;;;;;;8.22;78.25;101168.00;5090420;28;20139;-62
2022/01/22 03:10:07;;;;;;;5.78;2.25;;;;;;;8.21;78.21;101163.66;5090256;28;20044;-61
2022/01/22 03:18:01;;;;;;;6.18;2.25;;;;;;;8.26;78.62;101164.41;5091509;28;20079;-64
2022/01/22 03:28:56;;;;;;;6.28;2.42;;;;;;;8.28;78.53;101164.38;5091213;28;20101;-64
2022/01/22 03:31:23;;;;;;;3.25;2.10;;;;;;;8.29;78.63;101164.34;5089996;28;20048;-62
2022/01/22 03:33:50;;;;;;;5.00;2.10;;;;;;;8.29;78.60;101172.22;5091337;28;20048;-62
2022/01/22 03:36:18;;;;;;;2.75;2.03;;;;;;;8.31;78.73;101167.81;5091384;28;20483;-62
2022/01/22 03:38:46;;;;;;;5.60;2.35;;;;;;;8.31;78.67;101172.19;5090116;28;20055;-63
2022/01/22 03:41:14;;;;;;;3.78;1.80;;;;;;;8.31;78.63;101170.44;5089681;28;20067;-62
2022/01/22 03:43:40;;;;;;;2.72;2.40;;;;;;;8.32;78.65;101177.41;5091015;28;20106;-62
2022/01/22 03:46:07;;;;;;;5.55;2.70;;;;;;;8.33;78.44;101179.13;5091287;28;20105;-63
2022/01/22 03:48:34;;;;;;;5.32;2.70;;;;;;;8.35;79.02;101166.81;5091336;28;20056;-62
2022/01/22 03:51:00;;;;;;;3.30;2.35;;;;;;;8.36;78.46;101170.31;5091118;28;20458;-62
2022/01/22 03:53:27;;;;;;;3.42;2.15;;;;;;;8.38;78.87;101181.63;5090996;28;20056;-62
2022/01/22 03:56:04;;;;;;;4.90;2.70;;;;;;;8.39;78.90;101175.47;5091166;28;20393;-63
2022/01/22 03:58:33;;;;;;;2.65;2.33;;;;;;;8.38;78.61;101172.91;5090716;28;20899;-62
2022/01/22 04:01:36;;;;;;;3.50;2.55;;;;;;;8.40;78.39;101186.81;5090871;28;20048;-62
2022/01/22 04:04:04;;;;;;;5.78;2.38;;;;;;;8.41;78.75;101180.69;5090879;28;20047;-63
2022/01/22 04:09:08;;;;;;;7.05;3.25;;;;;;;8.40;78.34;101184.19;5090921;28;20052;-62
2022/01/22 04:11:39;;;;;;;3.00;2.70;;;;;;;8.42;78.80;101185.91;5089438;28;20086;-62
2022/01/22 04:14:13;;;;;;;4.82;2.97;;;;;;;8.44;78.72;101189.34;5090828;28;20101;-62
2022/01/22 04:17:00;;;;;;;6.20;3.00;;;;;;;8.46;78.92;101198.03;5089631;28;20048;-61
2022/01/22 04:24:59;;;;;;;5.55;2.70;;;;;;;8.50;78.69;101198.84;5090724;28;20044;-62
2022/01/22 04:27:29;;;;;;;4.97;2.58;;;;;;;8.50;78.52;101198.84;5090634;28;20113;-63
2022/01/22 04:29:58;;;;;;;3.72;2.90;;;;;;;8.51;78.49;101195.31;5089173;28;20484;-62
2022/01/22 04:32:26;;;;;;;4.82;2.75;;;;;;;8.53;78.66;101187.44;5089234;28;20044;-62
2022/01/22 04:34:54;;;;;;;3.20;2.60;;;;;;;8.55;78.50;101196.97;5090696;28;20056;-63
2022/01/22 04:37:24;;;;;;;3.97;2.75;;;;;;;8.56;78.32;101200.47;5089382;28;20105;-62
2022/01/22 04:39:52;;;;;;;4.00;2.60;;;;;;;8.58;78.14;101198.66;5090276;28;20055;-64
2022/01/22 04:42:19;;;;;;;4.22;2.83;;;;;;;8.58;78.42;101202.16;5089274;28;20052;-64
2022/01/22 04:44:56;;;;;;;4.72;2.97;;;;;;;8.59;78.39;101197.75;5089182;28;20090;-61
2022/01/22 04:54:57;;;;;;;5.68;3.03;;;;;;;8.60;78.34;101210.00;5090386;28;20048;-62
2022/01/22 04:55:28;;;;;;;5.55;2.47;;;;;;;8.61;78.23;101209.09;5090374;28;20541;-61
2022/01/22 04:57:54;;;;;;;4.22;2.78;;;;;;;8.61;78.00;101214.34;5090410;28;20048;-61
2022/01/22 05:00:21;;;;;;;4.75;2.58;;;;;;;8.60;78.10;101216.09;5089866;28;20478;-61
2022/01/22 05:02:48;;;;;;;5.43;2.60;;;;;;;8.61;78.07;101214.34;5089012;28;20047;-64
2022/01/22 05:05:15;;;;;;;4.20;2.55;;;;;;;8.62;78.13;101208.19;5090244;28;20047;-64
2022/01/22 05:07:41;;;;;;;3.97;2.53;;;;;;;8.62;78.51;101210.81;5090165;28;20113;-61
2022/01/22 05:10:09;;;;;;;5.05;3.00;;;;;;;8.63;78.16;101214.31;5089911;28;20098;-63
2022/01/22 05:12:36;;;;;;;3.40;2.78;;;;;;;8.63;78.03;101206.44;5090066;28;20048;-62
2022/01/22 05:15:04;;;;;;;5.18;2.42;;;;;;;8.64;78.19;101203.78;5088795;28;20095;-61
2022/01/22 05:17:34;;;;;;;3.55;2.80;;;;;;;8.64;78.16;101206.41;5073917;28;20052;-62
2022/01/22 05:20:08;;;;;;;5.57;2.80;;;;;;;8.65;78.11;101209.88;5093830;28;20051;-64
2022/01/22 05:25:06;;;;;;;3.67;3.00;;;;;;;8.66;78.19;101209.84;5093829;28;20097;-63
2022/01/22 05:27:51;;;;;;;3.33;2.90;;;;;;;8.67;77.89;101210.72;5092479;28;20105;-62
2022/01/22 05:33:28;;;;;;;3.92;2.88;;;;;;;8.68;78.13;101223.75;5093587;28;20044;-62
2022/01/22 05:38:36;;;;;;;3.03;2.70;;;;;;;8.68;77.88;101229.00;5093582;28;20140;-61
2022/01/22 05:41:03;;;;;;;4.63;2.47;;;;;;;8.68;77.66;101225.56;5093250;28;20487;-62
2022/01/22 05:43:29;;;;;;;3.15;2.50;;;;;;;8.66;77.82;101222.09;5093537;28;20048;-61
2022/01/22 05:45:56;;;;;;;2.55;2.17;;;;;;;8.66;78.15;101229.97;5093248;28;20083;-63
2022/01/22 05:48:23;;;;;;;2.55;2.03;;;;;;;8.66;77.92;101240.47;5093179;28;20048;-62
2022/01/22 06:01:22;;;;;;;3.30;2.00;;;;;;;8.70;77.80;101244.72;5092890;28;20101;-62
2022/01/22 06:03:49;;;;;;;2.40;2.20;;;;;;;8.69;77.65;101251.78;5093152;28;20051;-61
2022/01/22 06:06:15;;;;;;;3.53;2.35;;;;;;;8.68;77.49;101252.66;5093112;28;20044;-61
2022/01/22 06:08:49;;;;;;;3.33;2.97;;;;;;;8.69;77.87;101261.41;5093073;28;20052;-61
2022/01/22 06:11:22;;;;;;;5.43;3.75;;;;;;;8.68;77.85;101259.69;5091636;28;20052;-61
2022/01/22 06:13:49;;;;;;;4.88;3.17;;;;;;;8.67;77.80;101264.06;5091417;28;20052;-63
2022/01/22 06:16:18;;;;;;;4.55;3.50;;;;;;;8.66;78.01;101262.34;5092917;28;20078;-62
2022/01/22 06:18:45;;;;;;;4.80;3.38;;;;;;;8.67;78.05;101263.22;5092999;28;20546;-62
2022/01/22 06:21:12;;;;;;;3.83;3.42;;;;;;;8.66;77.89;101262.34;5092343;28;20055;-61
2022/01/22 06:23:40;;;;;;;4.47;3.30;;;;;;;8.66;77.60;101264.09;5091327;28;20055;-61
2022/01/22 06:26:07;;;;;;;4.25;3.50;;;;;;;8.64;77.89;101258.91;5091517;28;20454;-61
2022/01/22 06:28:36;;;;;;;4.07;3.67;;;;;;;8.64;77.76;101256.28;5091276;28;20081;-62
2022/01/22 06:31:03;;;;;;;4.57;3.92;;;;;;;8.64;77.71;101269.41;5092291;28;20105;-61
2022/01/22 06:33:30;;;;;;;6.50;4.75;;;;;;;8.63;77.69;101262.41;5092406;28;20051;-62
2022/01/22 06:35:57;;;;;;;5.72;4.45;;;;;;;8.63;77.83;101275.53;5092400;28;20109;-61
2022/01/22 06:38:24;;;;;;;8.10;5.65;;;;;;;8.63;77.60;101270.28;5092251;28;20071;-62
2022/01/22 06:43:35;;;;;;;5.25;4.18;;;;;;;8.63;77.69;101269.44;5092238;28;20112;-61
2022/01/22 06:46:02;;;;;;;5.78;4.60;;;;;;;8.61;77.65;101272.09;5092221;28;20048;-61
2022/01/22 06:48:29;;;;;;;5.03;4.35;;;;;;;8.63;77.83;101277.31;5092050;28;20047;-60
2022/01/22 06:50:55;;;;;;;6.75;4.75;;;;;;;8.63;78.02;101275.53;5091757;28;20056;-63
2022/01/22 06:53:22;;;;;;;5.75;4.53;;;;;;;8.64;77.93;101274.66;5092234;28;20056;-61
2022/01/22 06:55:57;;;;;;;6.35;4.65;;;;;;;8.64;77.60;101272.03;5091702;28;20047;-61
2022/01/22 06:58:24;;;;;;;6.53;4.82;;;;;;;8.65;77.69;101278.13;5091844;28;20050;-61
2022/01/22 07:00:51;;;;;;;5.78;4.85;;;;;;;8.64;77.47;101290.41;5091758;28;20052;-62
2022/01/22 07:03:18;;;;;;;6.03;5.05;;;;;;;8.63;77.59;101286.03;5090759;28;20106;-61
2022/01/22 07:05:45;;;;;;;6.90;4.25;;;;;;;8.64;77.87;101279.91;5091655;28;20060;-61
2022/01/22 07:08:11;;;;;;;5.00;4.15;;;;;;;8.64;77.86;101284.28;5092314;28;20064;-61
2022/01/22 07:10:38;;;;;;;5.05;4.25;;;;;;;8.64;77.96;101284.28;5091526;28;20545;-62
2022/01/22 07:13:05;;;;;;;5.25;4.30;;;;;;;8.64;77.50;101285.16;5091542;28;20505;-60
2022/01/22 07:15:32;;;;;;;6.10;4.10;;;;;;;8.64;77.65;101285.16;5091791;28;20052;-61
2022/01/22 07:17:59;;;;;;;4.90;3.53;;;;;;;8.63;77.67;101283.41;5091616;28;20081;-60
2022/01/22 07:20:29;;;;;;;5.07;3.80;;;;;;;8.64;77.54;101285.16;5090875;28;20475;-61
2022/01/22 07:23:12;;;;;;;6.18;4.20;;;;;;;8.63;77.85;101293.91;5091452;28;20059;-64
2022/01/22 07:25:38;;;;;;;;;;;;;;;8.63;77.28;101291.28;5092125;28;20056;-60
2022/01/22 07:28:05;;;;;;;7.22;3.20;;;;;;;8.67;77.65;101292.94;5091178;28;20326;-61
2022/01/22 07:30:32;;;;;;;4.53;3.30;;;;;;;8.65;77.71;101292.13;5089990;28;20048;-63
2022/01/22 07:32:59;;;;;;;3.50;2.58;;;;;;;8.64;77.70;101290.41;5090817;28;20047;-61
2022/01/22 07:35:26;;;;;;;3.33;2.40;;;;;;;8.64;77.75;101310.53;5091055;28;20097;-61
2022/01/22 07:37:52;;;;;;;4.30;2.88;;;;;;;8.63;77.89;101314.91;5091026;28;20552;-63
2022/01/22 07:40:19;;;;;;;3.78;2.67;;;;;;;8.64;77.74;101311.41;5089972;28;20089;-62
2022/01/22 07:42:45;;;;;;;3.55;2.83;;;;;;;8.63;77.83;101320.16;5090852;28;20051;-61
2022/01/22 07:45:12;;;;;;;3.58;2.83;;;;;;;8.64;77.75;101321.03;5090440;28;20078;-61
2022/01/22 07:47:38;;;;;;;3.65;2.78;;;;;;;8.65;77.80;101321.00;5090606;28;20109;-63
2022/01/22 07:50:06;;;;;;;4.32;2.40;;;;;;;8.64;78.02;101316.66;5090570;28;20396;-62
2022/01/22 07:52:32;;;;;;;3.17;2.72;;;;;;;8.65;77.80;101323.63;5089943;28;20044;-62
2022/01/22 07:55:00;;;;;;;5.45;2.63;;;;;;;8.65;78.15;101322.75;5090785;28;20055;-62
2022/01/22 07:57:27;;;;;;;3.08;2.60;;;;;;;8.65;77.87;101331.50;5089581;28;20059;-62
2022/01/22 07:59:53;;;;;;;3.33;2.40;;;;;;;8.65;77.65;101322.75;5090537;28;20100;-61
2022/01/22 08:02:20;;;;;;;4.38;2.85;;;;;;;8.65;77.92;101318.38;5090780;28;20110;-62
2022/01/22 08:04:46;;;;;;;5.75;3.30;;;;;;;8.65;77.86;101315.75;5091013;28;20052;-61
2022/01/22 08:07:13;;;;;;;4.32;3.00;;;;;;;8.66;77.93;101324.47;5090791;28;20458;-62
2022/01/22 08:09:40;;;;;;;4.00;3.20;;;;;;;8.66;78.03;101314.84;5090609;28;20443;-61
2022/01/22 08:12:07;;;;;;;4.32;3.20;;;;;;;8.67;77.83;101311.31;5089240;28;20093;-62
2022/01/22 08:14:34;;;;;;;4.28;3.10;;;;;;;8.67;78.00;101313.94;5089877;28;20048;-61
2022/01/22 08:17:01;;;;;;;3.80;2.78;;;;;;;8.67;77.83;101321.81;5090773;28;20040;-61
2022/01/22 08:19:27;;;;;;;3.33;2.92;;;;;;;8.68;77.78;101323.53;5090749;28;20119;-62
2022/01/22 08:21:54;;;;;;;4.00;3.15;;;;;;;8.71;78.08;101333.13;5090640;28;20106;-61
2022/01/22 08:24:24;;;;;;;3.97;2.97;;;;;;;8.70;77.91;101331.38;5090804;28;20048;-64
2022/01/22 08:27:08;;;;;;;3.65;3.08;;;;;;;8.71;78.03;101325.25;5090938;28;20060;-62
2022/01/22 08:29:35;;;;;;;3.97;3.53;;;;;;;8.72;77.87;101325.19;5089544;28;20055;-61
2022/01/22 08:32:27;;;;;;;4.93;3.95;;;;;;;8.74;77.81;101333.03;5090771;28;20044;-61
2022/01/22 08:37:39;;;;;;;3.63;2.85;;;;;;;8.76;77.67;101330.38;5090657;28;20181;-61
2022/01/22 08:40:09;;;;;;;3.65;2.70;;;;;;;8.76;77.53;101341.75;5090213;28;20094;-63
2022/01/22 08:42:36;;;;;;;4.13;3.00;;;;;;;8.76;77.61;101340.88;5089167;28;20100;-60
2022/01/22 08:45:04;;;;;;;4.32;3.17;;;;;;;8.74;77.60;101340.91;5090569;28;20070;-61
2022/01/22 08:47:30;;;;;;;4.43;2.92;;;;;;;8.74;77.67;101340.91;5090349;28;20550;-61
2022/01/22 08:49:57;;;;;;;3.85;2.90;;;;;;;8.75;77.91;101344.41;5090093;28;20044;-62
2022/01/22 08:52:29;;;;;;;3.75;2.97;;;;;;;8.76;77.80;101347.00;5093447;28;20483;-62
2022/01/22 08:54:55;;;;;;;3.40;2.72;;;;;;;8.77;78.13;101353.09;5094704;28;20492;-61
2022/01/22 08:57:24;;;;;;;4.03;2.83;;;;;;;8.78;78.14;101355.69;5094208;28;20083;-62
2022/01/22 08:59:51;;;;;;;4.13;2.60;;;;;;;8.79;77.92;101357.41;5094170;28;20048;-61
2022/01/22 09:02:18;;;;;;;3.88;2.60;;;;;;;8.81;77.95;101352.13;5094008;28;20056;-61
2022/01/22 09:04:46;;;;;;;2.45;2.03;;;;;;;8.82;78.10;101351.25;5094397;28;20071;-61
2022/01/22 09:07:12;;;;;;;3.05;2.08;;;;;;;8.83;77.81;101352.97;5094050;28;20495;-63
2022/01/22 09:09:41;;;;;;;3.03;1.92;;;;;;;8.84;77.74;101349.44;5092379;28;20082;-62
2022/01/22 09:12:09;;;;;;;2.80;2.22;;;;;;;8.83;77.80;101359.06;5093957;28;20447;-63
2022/01/22 09:14:36;;;;;;;2.72;2.00;;;;;;;8.83;77.92;101356.44;5092712;28;20055;-61
2022/01/22 09:17:03;;;;;;;2.17;1.98;;;;;;;8.84;77.93;101352.06;5093957;28;20121;-64
2022/01/22 09:19:36;;;;;;;2.45;2.20;;;;;;;8.85;78.10;101352.03;5093297;28;20044;-61
2022/01/22 09:22:05;;;;;;;2.78;1.98;;;;;;;8.86;78.18;101351.13;5092535;28;20048;-62
2022/01/22 09:24:32;;;;;;;2.72;2.08;;;;;;;8.89;78.42;101350.16;5092675;28;20048;-61
2022/01/22 09:27:03;;;;;;;2.08;1.80;;;;;;;8.92;78.58;101351.84;5092723;28;20067;-63
2022/01/22 09:29:30;;;;;;;3.17;2.20;;;;;;;8.94;78.30;101358.78;5093491;28;20066;-61
2022/01/22 09:31:57;;;;;;;2.80;2.13;;;;;;;8.96;78.33;101345.63;5093842;28;20051;-63
2022/01/22 09:34:23;;;;;;;2.17;1.88;;;;;;;8.97;77.87;101348.22;5093544;28;20078;-61
2022/01/22 09:36:50;;;;;;;3.05;2.25;;;;;;;8.99;77.95;101358.69;5093745;28;20052;-61
2022/01/22 09:39:17;;;;;;;2.28;2.08;;;;;;;8.99;77.92;101367.44;5093305;28;20048;-61
2022/01/22 09:41:44;;;;;;;3.42;2.35;;;;;;;8.99;78.12;101356.06;5093302;28;20557;-62
2022/01/22 09:44:29;;;;;;;2.78;2.17;;;;;;;9.00;78.19;101357.78;5092406;28;20052;-63
2022/01/22 09:46:56;;;;;;;3.70;2.42;;;;;;;9.02;78.29;101361.25;5093428;28;20048;-62
2022/01/22 09:49:23;;;;;;;2.78;2.10;;;;;;;9.03;78.30;101375.22;5091973;28;20451;-61
2022/01/22 09:51:50;;;;;;;2.78;2.25;;;;;;;9.07;78.33;101379.50;5091861;28;20044;-62
2022/01/22 09:54:16;;;;;;;2.30;2.10;;;;;;;9.10;78.71;101376.81;5093126;28;20048;-62
2022/01/22 09:56:45;;;;;;;2.28;2.08;;;;;;;9.12;78.58;101377.63;5093397;28;20048;-61
2022/01/22 09:59:13;;;;;;;2.97;2.47;;;;;;;9.16;78.19;101374.03;5092979;28;20048;-62
2022/01/22 10:01:40;;;;;;;4.10;2.47;;;;;;;9.19;78.46;101379.22;5091646;28;20573;-62
2022/01/22 10:04:08;;;;;;;2.60;2.13;;;;;;;9.22;78.29;101392.28;5092501;28;20135;-63
2022/01/22 10:06:53;;;;;;;2.70;2.22;;;;;;;9.22;77.71;101391.41;5093082;28;20492;-61
2022/01/22 10:09:26;;;;;;;3.95;2.65;;;;;;;9.30;78.32;101391.25;5090950;28;20127;-66
2022/01/22 10:12:27;;;;;;;;;;;;;;;9.31;77.28;101385.06;5091324;28;20105;-61
2022/01/22 10:15:06;;;;;;;2.05;1.85;;;;;;;9.35;77.45;101386.72;5080455;28;19927;-63
2022/01/22 10:17:56;;;;;;;1.83;1.55;;;;;;;9.35;76.97;101382.31;5091842;28;20485;-63
2022/01/22 10:20:32;;;;;;;2.85;1.73;;;;;;;9.39;77.74;101381.34;5083796;28;20048;-61
2022/01/22 10:23:01;;;;;;;2.13;1.50;;;;;;;9.39;77.71;101381.34;5092862;28;20105;-66
2022/01/22 10:25:43;;;;;;;4.30;1.50;;;;;;;9.37;77.02;101375.28;5092718;28;20180;-61
2022/01/22 10:28:17;;;;;;;3.10;1.67;;;;;;;9.41;77.41;101383.09;5092861;28;20105;-60
2022/01/22 10:30:45;;;;;;;2.83;1.48;;;;;;;9.41;77.53;101381.28;5091356;28;20040;-60
2022/01/22 10:33:27;;;;;;;2.67;1.60;;;;;;;9.39;76.98;101385.75;5092486;28;20089;-61
2022/01/22 10:36:23;;;;;;;1.98;1.50;;;;;;;9.37;76.54;101379.66;5091283;28;20052;-61
2022/01/22 10:38:52;;;;;;;2.25;1.77;;;;;;;9.41;77.23;101397.06;5091382;28;20105;-60
2022/01/22 10:41:38;;;;;;;3.97;2.03;;;;;;;9.36;76.55;101396.31;5090916;28;20056;-60
2022/01/22 10:44:08;;;;;;;2.85;1.83;;;;;;;9.38;77.07;101391.88;5092116;28;20102;-61
2022/01/22 10:46:51;;;;;;;3.50;2.15;;;;;;;9.37;77.17;101392.78;5092615;28;20048;-62
2022/01/22 10:49:23;;;;;;;2.63;2.00;;;;;;;9.34;76.58;101390.22;5090906;28;20054;-66
2022/01/22 10:51:57;;;;;;;2.72;2.03;;;;;;;9.33;77.00;101384.13;5092232;28;20062;-62
2022/01/22 10:54:29;;;;;;;2.45;2.08;;;;;;;9.31;76.91;101379.81;5090797;28;20480;-60
2022/01/22 10:57:14;;;;;;;2.90;1.88;;;;;;;9.25;76.66;101389.59;5092061;28;20454;-61
2022/01/22 10:59:48;;;;;;;2.50;2.20;;;;;;;9.24;76.36;101382.59;5091722;28;20044;-60
2022/01/22 11:02:19;;;;;;;3.33;2.00;;;;;;;9.27;77.05;101393.94;5090828;28;20105;-60
2022/01/22 11:04:46;;;;;;;2.55;2.10;;;;;;;9.25;77.21;101386.97;5090722;28;20040;-60
2022/01/22 11:07:17;;;;;;;3.08;2.00;;;;;;;9.22;76.98;101392.28;5090587;28;20052;-60
2022/01/22 11:09:50;;;;;;;3.08;1.73;;;;;;;9.24;77.36;101385.22;5091861;28;20063;-61
2022/01/22 11:12:17;;;;;;;3.05;1.88;;;;;;;9.25;77.62;101386.97;5091775;28;20044;-60
2022/01/22 11:14:44;;;;;;;2.28;2.00;;;;;;;9.27;77.88;101392.16;5089554;28;20097;-61
2022/01/22 11:17:12;;;;;;;5.80;1.83;;;;;;;9.31;78.39;101398.22;5090577;28;20450;-62
2022/01/22 11:19:43;;;;;;;2.13;1.70;;;;;;;9.35;78.27;101384.09;5090187;28;20048;-62
2022/01/22 11:22:14;;;;;;;2.15;1.60;;;;;;;9.39;77.76;101385.75;5090241;28;20059;-61
2022/01/22 11:24:47;;;;;;;1.83;1.63;;;;;;;9.43;77.21;101391.78;5090529;28;20055;-60
2022/01/22 11:27:16;;;;;;;2.97;1.77;;;;;;;9.46;77.29;101391.69;5091490;28;20048;-63
2022/01/22 11:29:51;;;;;;;1.90;1.40;;;;;;;9.46;76.47;101389.06;5091264;28;20048;-60
2022/01/22 11:32:23;;;;;;;1.45;1.20;;;;;;;9.45;76.22;101393.47;5091294;28;20049;-60
2022/01/22 11:34:52;;;;;;;1.40;1.27;;;;;;;9.43;76.38;101403.16;5091018;28;20430;-61
2022/01/22 11:37:36;;;;;;;1.65;1.35;;;;;;;9.38;75.80;101403.25;5090155;28;20052;-60
2022/01/22 11:40:17;;;;;;;2.40;1.10;;;;;;;9.35;75.76;101398.06;5089898;28;20048;-60
2022/01/22 11:43:06;;;;;;;1.48;1.17;;;;;;;9.34;75.93;101400.75;5091138;28;20043;-60
2022/01/22 11:45:38;;;;;;;1.13;1.02;;;;;;;9.33;76.33;101391.13;5091103;28;20491;-60
2022/01/22 11:48:20;;;;;;;1.08;1.00;;;;;;;9.29;76.11;101398.25;5091156;28;20047;-60
2022/01/22 11:50:50;;;;;;;1.88;1.40;;;;;;;9.31;76.73;101390.34;5089575;28;20496;-61
2022/01/22 11:53:27;;;;;;;2.22;1.40;;;;;;;9.31;76.90;101396.44;5089621;28;20508;-60
2022/01/22 11:56:25;;;;;;;1.80;1.45;;;;;;;9.32;76.72;101394.69;5088812;28;20051;-60
2022/01/22 11:58:58;;;;;;;1.85;1.65;;;;;;;9.37;76.91;101405.94;5089527;28;20511;-60
2022/01/22 12:01:37;;;;;;;;;;;;;;;9.42;76.50;101408.44;5089854;28;20056;-60
2022/01/22 12:04:05;;;;;;;2.38;1.40;;;;;;;9.49;77.24;101410.00;5091358;28;20015;-60
2022/01/22 12:07:01;;;;;;;1.67;1.52;;;;;;;9.47;76.15;101409.19;5089928;28;20083;-60
2022/01/22 12:09:32;;;;;;;2.45;1.80;;;;;;;9.50;76.87;101407.34;5090599;28;20460;-60
2022/01/22 12:15:07;;;;;;;1.50;1.35;;;;;;;9.49;76.73;101407.38;5090803;28;20040;-60
2022/01/22 12:17:55;;;;;;;2.75;1.63;;;;;;;9.44;75.71;101402.25;5089541;28;20556;-62
2022/01/22 12:23:12;;;;;;;1.15;1.00;;;;;;;9.45;76.48;101401.34;5090770;28;20048;-61
2022/01/22 12:25:38;;;;;;;1.27;1.10;;;;;;;9.44;76.70;101411.91;5091173;28;20044;-61
2022/01/22 12:28:07;;;;;;;1.55;1.23;;;;;;;9.41;76.50;101406.75;5095047;28;20047;-62
2022/01/22 12:30:47;;;;;;;2.00;1.50;;;;;;;9.38;76.16;101418.16;5094618;28;20048;-60
2022/01/22 12:33:30;;;;;;;1.65;1.40;;;;;;;9.36;75.86;101407.72;5093451;28;20063;-61
2022/01/22 12:35:58;;;;;;;1.60;1.15;;;;;;;9.38;76.83;101412.91;5094694;28;20098;-60
2022/01/22 12:38:36;;;;;;;1.23;1.13;;;;;;;9.39;76.95;101414.66;5093576;28;20093;-63
2022/01/22 12:41:29;;;;;;;2.08;1.45;;;;;;;9.38;76.51;101416.41;5094209;28;20483;-60
2022/01/22 12:44:01;;;;;;;;;;;;;;;9.45;76.09;101409.22;5095076;28;20492;-61
2022/01/22 12:46:48;;;;;;;2.40;1.30;;;;;;;9.51;76.89;101411.72;5094647;28;19924;-61
2022/01/22 12:49:16;;;;;;;2.53;1.60;;;;;;;9.50;76.97;101419.63;5094170;28;20117;-61
2022/01/22 12:51:43;;;;;;;3.05;1.60;;;;;;;9.49;76.72;101410.00;5094262;28;20048;-60
2022/01/22 12:54:09;;;;;;;1.50;1.17;;;;;;;9.49;77.07;101410.00;5094272;28;20036;-60
2022/01/22 12:57:16;;;;;;;2.33;1.00;;;;;;;9.46;76.03;101408.31;5093704;28;20076;-61
2022/01/22 13:00:09;;;;;;;1.35;0.90;;;;;;;9.49;76.33;101405.63;5092790;28;20480;-60
2022/01/22 13:02:55;;;;;;;0.90;0.80;;;;;;;9.54;76.25;101408.16;5093309;28;20071;-62
2022/01/22 13:05:23;;;;;;;1.60;1.23;;;;;;;9.61;76.88;101406.22;5094259;28;20056;-62
2022/01/22 13:07:54;;;;;;;1.15;0.90;;;;;;;9.63;77.07;101404.41;5092975;28;20048;-61
2022/01/22 13:10:26;;;;;;;2.08;1.10;;;;;;;9.64;76.55;101409.63;5093791;28;20059;-60
2022/01/22 13:12:55;;;;;;;4.63;1.23;;;;;;;9.65;76.67;101405.22;5094024;28;20048;-61
2022/01/22 13:15:22;;;;;;;2.55;1.33;;;;;;;9.65;76.72;101402.59;5093994;28;20113;-62
2022/01/22 13:18:00;;;;;;;1.52;1.20;;;;;;;9.60;75.67;101412.34;5093871;28;20431;-60
2022/01/22 13:20:31;;;;;;;2.28;1.20;;;;;;;9.61;76.19;101408.84;5093438;28;20094;-60
2022/01/22 13:23:02;;;;;;;1.95;0.90;;;;;;;9.62;76.41;101419.31;5094314;28;20043;-62
2022/01/22 13:25:29;;;;;;;1.05;0.88;;;;;;;9.60;76.32;101407.09;5092827;28;20051;-61